Ringgold, Texas
Current Conditions -  °F | °C
As of 10:10 AM on Sunday 25 Jan 2015 (Local Time) from K0F2 Reporting Station
Clear Clear  
Wind Chill: 56°   Ceiling: Unl
Heat Index: 56°   Visibility: 10mi
Dew Point: 32°   Wind: 22mph
Humidity: 39%   Direction: 300°WNW
Pressure: 30.07"   Gusts: 26mph
Location:  33.82°N, 97.94°W
Report Text: K0F2 251610Z AUTO 30019G23KT 10SM CLR 14/00 A3007 RMK AO2 T01361001
Loading
Personal Weather Stations






























Interactive Weather Map New forecast layout! Learn more

10-Day Weather Forecast

Advertisements
Track Severe Weather on mobile